Hamilton, GA (31811)

12:02 PM EST on February 28, 2015 (GMT -0500)
Piedmont | Change Station
CLOSE
Current Station
Personal Weather Station
Location: Pine Mountain, GA
Elevation: 820 ft
Nearby Weather Stations

Elev 820 ft 32.79 °N, 84.98 °W | Updated 1 minute ago

Partly Cloudy
Partly Cloudy
55.6 °F
Feels Like 55.6 °F
N
6.3
Wind Variable Wind from SE

Today
High -- | Low -- °F
--% Chance of Precip.
Yesterday
High -- | Low -- °F
Precip. -- in
7:09 AM 6:36 PM
Waxing Gibbous, 78% visible
Pressure 30.53 in
Visibility 10.0 miles
Clouds Clear
Dew Point 38 °F
Humidity 51%
Rainfall 0.00 in
Snow Depth Not available.
UV 7 out of 12
Pollen 8.70 out of 12
Air Quality Not available.
Flu Activity Not available.
METAR KCSG 281651Z 08011KT 10SM CLR 11/01 A3052 RMK AO2 SLP337 T01060006

More Conditions Fewer Conditions

Pressure 30.53 in
Visibility 10.0 miles
Clouds Clear
Dew Point 38 °F
Humidity 51%
Rainfall 0.00 in
Snow Depth Not available.
UV 7 out of 12
Pollen 8.70 out of 12
Air Quality Not available.
Flu Activity Not available.
METAR KCSG 281651Z 08011KT 10SM CLR 11/01 A3052 RMK AO2 SLP337 T01060006

More Conditions Fewer Conditions

10-Day Weather Forecast

Almanac

Astronomy

Feb. 28, 2015 Rise Set
Actual Time
Civil Twilight
Nautical Twilight
Astronomical Twilight
Moon
Length of Visible Light
Length of Day
Tomorrow will be .
, % of the Moon is Illuminated

Today's Extremes

State Highs State Lows

Community

WunderPhotos

Upload Photos

1,801,089 photos uploaded!

WunderBlogs® & News

Nearby

Air Quality

  Air Quality AQ Index Pollutant
Not available.

Snow Depth

Station Depth Elevation

Earthquake Activity

City Distance Mag. Time & Date
Minimum magnitude displayed is 2.5.

Coastal Water Temperatures

Place Temperature

Nearby Weather Stations